sensor_id;sensor_type;location;lat;lon;timestamp;temperature;humidity
14577;DHT22;7375;46.072;14.470;2023-01-01T00:02:10;20.90;55.40
14577;DHT22;7375;46.072;14.470;2023-01-01T00:04:37;20.90;55.50
14577;DHT22;7375;46.072;14.470;2023-01-01T00:07:05;20.90;55.60
14577;DHT22;7375;46.072;14.470;2023-01-01T00:09:32;20.90;55.70
14577;DHT22;7375;46.072;14.470;2023-01-01T00:12:16;20.80;55.50
14577;DHT22;7375;46.072;14.470;2023-01-01T00:14:42;20.80;55.50
14577;DHT22;7375;46.072;14.470;2023-01-01T00:17:09;20.80;55.70
14577;DHT22;7375;46.072;14.470;2023-01-01T00:19:36;20.80;55.70
14577;DHT22;7375;46.072;14.470;2023-01-01T00:22:02;20.80;55.70
14577;DHT22;7375;46.072;14.470;2023-01-01T00:24:30;20.80;55.80
14577;DHT22;7375;46.072;14.470;2023-01-01T00:26:57;20.70;55.80
14577;DHT22;7375;46.072;14.470;2023-01-01T00:29:24;20.70;55.80
14577;DHT22;7375;46.072;14.470;2023-01-01T00:31:50;20.70;55.90
14577;DHT22;7375;46.072;14.470;2023-01-01T00:34:17;20.70;55.90
14577;DHT22;7375;46.072;14.470;2023-01-01T00:36:44;20.70;56.00
14577;DHT22;7375;46.072;14.470;2023-01-01T00:39:10;20.70;56.00
14577;DHT22;7375;46.072;14.470;2023-01-01T00:41:38;20.70;56.10
14577;DHT22;7375;46.072;14.470;2023-01-01T00:44:05;20.60;56.00
14577;DHT22;7375;46.072;14.470;2023-01-01T00:46:32;20.60;56.10
14577;DHT22;7375;46.072;14.470;2023-01-01T00:48:59;20.60;56.10
14577;DHT22;7375;46.072;14.470;2023-01-01T00:51:26;20.60;56.20
14577;DHT22;7375;46.072;14.470;2023-01-01T00:53:52;20.60;56.20
14577;DHT22;7375;46.072;14.470;2023-01-01T00:56:19;20.60;56.30
14577;DHT22;7375;46.072;14.470;2023-01-01T00:58:51;20.60;56.30
14577;DHT22;7375;46.072;14.470;2023-01-01T01:01:18;20.60;56.30
14577;DHT22;7375;46.072;14.470;2023-01-01T01:03:44;20.60;56.40
14577;DHT22;7375;46.072;14.470;2023-01-01T01:06:11;20.60;56.40
14577;DHT22;7375;46.072;14.470;2023-01-01T01:08:41;20.50;56.40
14577;DHT22;7375;46.072;14.470;2023-01-01T01:11:09;20.50;56.40
14577;DHT22;7375;46.072;14.470;2023-01-01T01:13:36;20.50;56.50
14577;DHT22;7375;46.072;14.470;2023-01-01T01:16:08;20.50;56.50
14577;DHT22;7375;46.072;14.470;2023-01-01T01:18:35;20.50;56.50
14577;DHT22;7375;46.072;14.470;2023-01-01T01:21:02;20.50;56.50
14577;DHT22;7375;46.072;14.470;2023-01-01T01:23:28;20.50;56.60
14577;DHT22;7375;46.072;14.470;2023-01-01T01:26:04;20.50;56.60
14577;DHT22;7375;46.072;14.470;2023-01-01T01:28:31;20.50;56.60
14577;DHT22;7375;46.072;14.470;2023-01-01T01:30:58;20.50;56.70
14577;DHT22;7375;46.072;14.470;2023-01-01T01:33:26;20.40;56.60
14577;DHT22;7375;46.072;14.470;2023-01-01T01:35:52;20.40;56.60
14577;DHT22;7375;46.072;14.470;2023-01-01T01:38:19;20.40;56.70
14577;DHT22;7375;46.072;14.470;2023-01-01T01:40:46;20.40;56.70
14577;DHT22;7375;46.072;14.470;2023-01-01T01:43:17;20.40;56.70
14577;DHT22;7375;46.072;14.470;2023-01-01T01:45:45;20.40;56.70
14577;DHT22;7375;46.072;14.470;2023-01-01T01:48:11;20.40;56.80
14577;DHT22;7375;46.072;14.470;2023-01-01T01:50:39;20.40;56.80
14577;DHT22;7375;46.072;14.470;2023-01-01T01:53:08;20.40;56.80
14577;DHT22;7375;46.072;14.470;2023-01-01T01:55:36;20.40;56.80
14577;DHT22;7375;46.072;14.470;2023-01-01T01:58:04;20.40;56.80
14577;DHT22;7375;46.072;14.470;2023-01-01T02:00:32;20.40;56.90
14577;DHT22;7375;46.072;14.470;2023-01-01T02:03:01;20.30;56.80
14577;DHT22;7375;46.072;14.470;2023-01-01T02:05:30;20.30;56.80
14577;DHT22;7375;46.072;14.470;2023-01-01T02:08:00;20.30;56.80
14577;DHT22;7375;46.072;14.470;2023-01-01T02:10:28;20.30;56.90
14577;DHT22;7375;46.072;14.470;2023-01-01T02:12:55;20.30;56.90
14577;DHT22;7375;46.072;14.470;2023-01-01T02:15:22;20.30;56.90
14577;DHT22;7375;46.072;14.470;2023-01-01T02:17:51;20.30;56.90
14577;DHT22;7375;46.072;14.470;2023-01-01T02:20:27;20.30;56.90
14577;DHT22;7375;46.072;14.470;2023-01-01T02:25:43;20.30;57.00
14577;DHT22;7375;46.072;14.470;2023-01-01T02:28:14;20.30;57.00
14577;DHT22;7375;46.072;14.470;2023-01-01T02:30:46;20.30;57.00
14577;DHT22;7375;46.072;14.470;2023-01-01T02:33:15;20.30;57.00
14577;DHT22;7375;46.072;14.470;2023-01-01T02:35:44;20.30;57.00
14577;DHT22;7375;46.072;14.470;2023-01-01T02:38:12;20.30;57.10
14577;DHT22;7375;46.072;14.470;2023-01-01T02:40:41;20.30;57.10
14577;DHT22;7375;46.072;14.470;2023-01-01T02:43:10;20.30;57.10
14577;DHT22;7375;46.072;14.470;2023-01-01T02:45:36;20.30;57.10
14577;DHT22;7375;46.072;14.470;2023-01-01T02:50:52;20.30;57.10
14577;DHT22;7375;46.072;14.470;2023-01-01T02:53:21;20.30;57.20
14577;DHT22;7375;46.072;14.470;2023-01-01T02:55:54;20.20;57.10
14577;DHT22;7375;46.072;14.470;2023-01-01T02:58:23;20.20;57.10
14577;DHT22;7375;46.072;14.470;2023-01-01T03:01:08;20.20;57.10
14577;DHT22;7375;46.072;14.470;2023-01-01T03:03:40;20.20;57.20
14577;DHT22;7375;46.072;14.470;2023-01-01T03:06:07;20.20;57.20
14577;DHT22;7375;46.072;14.470;2023-01-01T03:08:53;20.20;57.20
14577;DHT22;7375;46.072;14.470;2023-01-01T03:11:21;20.20;57.20
14577;DHT22;7375;46.072;14.470;2023-01-01T03:13:50;20.20;57.20
14577;DHT22;7375;46.072;14.470;2023-01-01T03:16:20;20.20;57.20
14577;DHT22;7375;46.072;14.470;2023-01-01T03:18:51;20.20;57.20
14577;DHT22;7375;46.072;14.470;2023-01-01T03:21:36;20.20;57.20
14577;DHT22;7375;46.072;14.470;2023-01-01T03:24:03;20.20;57.30
14577;DHT22;7375;46.072;14.470;2023-01-01T03:26:30;20.20;57.80
14577;DHT22;7375;46.072;14.470;2023-01-01T03:28:59;20.20;57.30
14577;DHT22;7375;46.072;14.470;2023-01-01T03:31:27;20.20;57.30
14577;DHT22;7375;46.072;14.470;2023-01-01T03:33:55;20.20;57.30
14577;DHT22;7375;46.072;14.470;2023-01-01T03:36:25;20.20;57.30
14577;DHT22;7375;46.072;14.470;2023-01-01T03:38:54;20.20;57.30
14577;DHT22;7375;46.072;14.470;2023-01-01T03:41:23;20.20;57.30
14577;DHT22;7375;46.072;14.470;2023-01-01T03:43:53;20.20;57.30
14577;DHT22;7375;46.072;14.470;2023-01-01T03:46:23;20.20;57.30
14577;DHT22;7375;46.072;14.470;2023-01-01T03:48:51;20.20;57.30
14577;DHT22;7375;46.072;14.470;2023-01-01T03:51:29;20.20;57.30
14577;DHT22;7375;46.072;14.470;2023-01-01T03:53:59;20.10;57.30
14577;DHT22;7375;46.072;14.470;2023-01-01T03:56:28;20.10;57.30
14577;DHT22;7375;46.072;14.470;2023-01-01T03:58:59;20.10;57.30
14577;DHT22;7375;46.072;14.470;2023-01-01T04:01:29;20.10;57.30
14577;DHT22;7375;46.072;14.470;2023-01-01T04:03:56;20.10;57.30
14577;DHT22;7375;46.072;14.470;2023-01-01T04:06:24;20.10;57.30
14577;DHT22;7375;46.072;14.470;2023-01-01T04:08:52;20.10;57.40
14577;DHT22;7375;46.072;14.470;2023-01-01T04:11:22;20.10;57.30
14577;DHT22;7375;46.072;14.470;2023-01-01T04:14:07;20.10;57.40
14577;DHT22;7375;46.072;14.470;2023-01-01T04:16:34;20.10;57.40
14577;DHT22;7375;46.072;14.470;2023-01-01T04:19:01;20.10;57.40
14577;DHT22;7375;46.072;14.470;2023-01-01T04:21:31;20.10;57.40
14577;DHT22;7375;46.072;14.470;2023-01-01T04:23:59;20.10;57.40
14577;DHT22;7375;46.072;14.470;2023-01-01T04:26:26;20.10;57.40
14577;DHT22;7375;46.072;14.470;2023-01-01T04:28:52;20.10;57.40
14577;DHT22;7375;46.072;14.470;2023-01-01T04:31:19;20.10;57.40
14577;DHT22;7375;46.072;14.470;2023-01-01T04:33:46;20.10;57.40
14577;DHT22;7375;46.072;14.470;2023-01-01T04:36:13;20.10;57.40
14577;DHT22;7375;46.072;14.470;2023-01-01T04:38:39;20.10;57.40
14577;DHT22;7375;46.072;14.470;2023-01-01T04:41:08;20.10;57.40
14577;DHT22;7375;46.072;14.470;2023-01-01T04:43:35;20.10;57.40
14577;DHT22;7375;46.072;14.470;2023-01-01T04:46:02;20.10;57.40
14577;DHT22;7375;46.072;14.470;2023-01-01T04:48:29;20.10;57.40
14577;DHT22;7375;46.072;14.470;2023-01-01T04:50:57;20.20;57.40
14577;DHT22;7375;46.072;14.470;2023-01-01T04:53:24;20.20;57.40
14577;DHT22;7375;46.072;14.470;2023-01-01T04:55:51;20.20;57.30
14577;DHT22;7375;46.072;14.470;2023-01-01T04:58:19;20.20;57.30
14577;DHT22;7375;46.072;14.470;2023-01-01T05:00:47;20.20;57.30
14577;DHT22;7375;46.072;14.470;2023-01-01T05:03:14;20.30;57.30
14577;DHT22;7375;46.072;14.470;2023-01-01T05:05:40;20.30;57.10
14577;DHT22;7375;46.072;14.470;2023-01-01T05:08:07;20.30;57.00
14577;DHT22;7375;46.072;14.470;2023-01-01T05:10:33;20.40;56.90
14577;DHT22;7375;46.072;14.470;2023-01-01T05:13:00;20.40;56.80
14577;DHT22;7375;46.072;14.470;2023-01-01T05:15:28;20.50;56.70
14577;DHT22;7375;46.072;14.470;2023-01-01T05:17:55;20.50;56.50
14577;DHT22;7375;46.072;14.470;2023-01-01T05:20:22;20.60;56.40
14577;DHT22;7375;46.072;14.470;2023-01-01T05:22:48;20.70;56.20
14577;DHT22;7375;46.072;14.470;2023-01-01T05:25:15;20.70;56.00
14577;DHT22;7375;46.072;14.470;2023-01-01T05:27:42;20.80;55.90
14577;DHT22;7375;46.072;14.470;2023-01-01T05:30:09;20.80;55.70
14577;DHT22;7375;46.072;14.470;2023-01-01T05:32:37;20.80;55.60
14577;DHT22;7375;46.072;14.470;2023-01-01T05:35:04;20.90;55.40
14577;DHT22;7375;46.072;14.470;2023-01-01T05:37:30;21.00;55.30
14577;DHT22;7375;46.072;14.470;2023-01-01T05:39:57;21.00;55.20
14577;DHT22;7375;46.072;14.470;2023-01-01T05:42:24;21.10;55.20
14577;DHT22;7375;46.072;14.470;2023-01-01T05:44:51;21.10;55.00
14577;DHT22;7375;46.072;14.470;2023-01-01T05:47:17;21.10;55.00
14577;DHT22;7375;46.072;14.470;2023-01-01T05:49:47;21.20;54.80
14577;DHT22;7375;46.072;14.470;2023-01-01T05:52:14;21.20;54.70
14577;DHT22;7375;46.072;14.470;2023-01-01T05:54:40;21.30;54.60
14577;DHT22;7375;46.072;14.470;2023-01-01T05:57:07;21.20;54.50
14577;DHT22;7375;46.072;14.470;2023-01-01T05:59:33;21.30;54.50
14577;DHT22;7375;46.072;14.470;2023-01-01T06:02:00;21.30;54.40
14577;DHT22;7375;46.072;14.470;2023-01-01T06:04:27;21.40;54.40
14577;DHT22;7375;46.072;14.470;2023-01-01T06:06:55;21.40;54.30
14577;DHT22;7375;46.072;14.470;2023-01-01T06:09:22;21.40;54.30
14577;DHT22;7375;46.072;14.470;2023-01-01T06:11:48;21.40;54.20
14577;DHT22;7375;46.072;14.470;2023-01-01T06:14:15;21.40;54.10
14577;DHT22;7375;46.072;14.470;2023-01-01T06:16:41;21.40;54.10
14577;DHT22;7375;46.072;14.470;2023-01-01T06:19:08;21.40;54.00
14577;DHT22;7375;46.072;14.470;2023-01-01T06:21:35;21.50;54.00
14577;DHT22;7375;46.072;14.470;2023-01-01T06:24:03;21.50;54.00
14577;DHT22;7375;46.072;14.470;2023-01-01T06:26:31;21.50;53.90
14577;DHT22;7375;46.072;14.470;2023-01-01T06:28:58;21.50;53.80
14577;DHT22;7375;46.072;14.470;2023-01-01T06:31:25;21.50;53.80
14577;DHT22;7375;46.072;14.470;2023-01-01T06:33:53;21.50;53.80
14577;DHT22;7375;46.072;14.470;2023-01-01T06:36:20;21.60;53.80
14577;DHT22;7375;46.072;14.470;2023-01-01T06:38:47;21.60;53.70
14577;DHT22;7375;46.072;14.470;2023-01-01T06:41:16;21.60;53.70
14577;DHT22;7375;46.072;14.470;2023-01-01T06:43:44;21.60;53.70
14577;DHT22;7375;46.072;14.470;2023-01-01T06:46:13;21.60;53.70
14577;DHT22;7375;46.072;14.470;2023-01-01T06:48:40;21.60;53.60
14577;DHT22;7375;46.072;14.470;2023-01-01T06:51:07;21.60;53.60
14577;DHT22;7375;46.072;14.470;2023-01-01T06:53:34;21.70;53.60
14577;DHT22;7375;46.072;14.470;2023-01-01T06:56:01;21.70;53.60
14577;DHT22;7375;46.072;14.470;2023-01-01T06:58:29;21.70;53.60
14577;DHT22;7375;46.072;14.470;2023-01-01T07:01:01;21.70;53.60
14577;DHT22;7375;46.072;14.470;2023-01-01T07:03:28;21.70;53.50
14577;DHT22;7375;46.072;14.470;2023-01-01T07:05:55;21.70;53.40
14577;DHT22;7375;46.072;14.470;2023-01-01T07:08:21;21.70;53.30
14577;DHT22;7375;46.072;14.470;2023-01-01T07:10:48;21.70;53.40
14577;DHT22;7375;46.072;14.470;2023-01-01T07:13:15;21.70;53.40
14577;DHT22;7375;46.072;14.470;2023-01-01T07:15:43;21.80;53.30
14577;DHT22;7375;46.072;14.470;2023-01-01T07:18:09;21.70;53.90
14577;DHT22;7375;46.072;14.470;2023-01-01T07:20:36;21.80;53.40
14577;DHT22;7375;46.072;14.470;2023-01-01T07:23:03;21.80;53.30
14577;DHT22;7375;46.072;14.470;2023-01-01T07:25:29;21.80;53.30
14577;DHT22;7375;46.072;14.470;2023-01-01T07:27:56;21.80;53.30
14577;DHT22;7375;46.072;14.470;2023-01-01T07:30:23;21.80;53.20
14577;DHT22;7375;46.072;14.470;2023-01-01T07:32:54;21.80;53.20
14577;DHT22;7375;46.072;14.470;2023-01-01T07:35:21;21.80;53.30
14577;DHT22;7375;46.072;14.470;2023-01-01T07:37:48;21.80;53.10
14577;DHT22;7375;46.072;14.470;2023-01-01T07:40:14;21.90;53.10
14577;DHT22;7375;46.072;14.470;2023-01-01T07:42:41;21.90;53.10
14577;DHT22;7375;46.072;14.470;2023-01-01T07:45:09;21.90;53.10
14577;DHT22;7375;46.072;14.470;2023-01-01T07:47:37;21.90;53.10
14577;DHT22;7375;46.072;14.470;2023-01-01T07:50:05;21.90;53.00
14577;DHT22;7375;46.072;14.470;2023-01-01T07:52:32;21.90;53.00
14577;DHT22;7375;46.072;14.470;2023-01-01T07:54:58;21.90;52.90
14577;DHT22;7375;46.072;14.470;2023-01-01T07:57:25;22.00;53.00
14577;DHT22;7375;46.072;14.470;2023-01-01T07:59:52;21.90;52.80
14577;DHT22;7375;46.072;14.470;2023-01-01T08:02:18;22.00;52.90
14577;DHT22;7375;46.072;14.470;2023-01-01T08:04:45;22.00;52.90
14577;DHT22;7375;46.072;14.470;2023-01-01T08:07:13;22.00;52.80
14577;DHT22;7375;46.072;14.470;2023-01-01T08:09:40;22.00;52.80
14577;DHT22;7375;46.072;14.470;2023-01-01T08:12:06;22.00;52.70
14577;DHT22;7375;46.072;14.470;2023-01-01T08:14:33;22.00;52.70
14577;DHT22;7375;46.072;14.470;2023-01-01T08:17:00;22.10;52.80
14577;DHT22;7375;46.072;14.470;2023-01-01T08:19:26;22.00;52.60
14577;DHT22;7375;46.072;14.470;2023-01-01T08:21:53;22.10;52.70
14577;DHT22;7375;46.072;14.470;2023-01-01T08:24:21;22.10;52.60
14577;DHT22;7375;46.072;14.470;2023-01-01T08:26:48;22.10;52.60
14577;DHT22;7375;46.072;14.470;2023-01-01T08:29:15;22.10;52.50
14577;DHT22;7375;46.072;14.470;2023-01-01T08:31:42;22.10;52.50
14577;DHT22;7375;46.072;14.470;2023-01-01T08:34:09;22.20;52.50
14577;DHT22;7375;46.072;14.470;2023-01-01T08:36:36;22.20;52.40
14577;DHT22;7375;46.072;14.470;2023-01-01T08:39:06;22.20;52.40
14577;DHT22;7375;46.072;14.470;2023-01-01T08:41:34;22.20;52.40
14577;DHT22;7375;46.072;14.470;2023-01-01T08:44:01;22.20;52.40
14577;DHT22;7375;46.072;14.470;2023-01-01T08:46:28;22.30;52.40
14577;DHT22;7375;46.072;14.470;2023-01-01T08:48:54;22.30;52.40
14577;DHT22;7375;46.072;14.470;2023-01-01T08:51:21;22.30;52.30
14577;DHT22;7375;46.072;14.470;2023-01-01T08:53:48;22.30;52.30
14577;DHT22;7375;46.072;14.470;2023-01-01T08:56:14;22.40;52.20
14577;DHT22;7375;46.072;14.470;2023-01-01T08:58:42;22.40;52.20
14577;DHT22;7375;46.072;14.470;2023-01-01T09:01:09;22.40;52.20
14577;DHT22;7375;46.072;14.470;2023-01-01T09:03:36;22.40;52.10
14577;DHT22;7375;46.072;14.470;2023-01-01T09:06:04;22.40;52.00
14577;DHT22;7375;46.072;14.470;2023-01-01T09:08:30;22.40;52.00
14577;DHT22;7375;46.072;14.470;2023-01-01T09:10:58;22.40;52.00
14577;DHT22;7375;46.072;14.470;2023-01-01T09:13:25;22.40;52.00
14577;DHT22;7375;46.072;14.470;2023-01-01T09:15:53;22.40;52.00
14577;DHT22;7375;46.072;14.470;2023-01-01T09:18:20;22.40;52.00
14577;DHT22;7375;46.072;14.470;2023-01-01T09:20:47;22.40;52.10
14577;DHT22;7375;46.072;14.470;2023-01-01T09:23:14;22.40;52.00
14577;DHT22;7375;46.072;14.470;2023-01-01T09:25:41;22.40;52.00
14577;DHT22;7375;46.072;14.470;2023-01-01T09:28:09;22.40;52.10
14577;DHT22;7375;46.072;14.470;2023-01-01T09:30:36;22.40;52.20
14577;DHT22;7375;46.072;14.470;2023-01-01T09:33:04;22.40;52.20
14577;DHT22;7375;46.072;14.470;2023-01-01T09:35:31;22.30;52.20
14577;DHT22;7375;46.072;14.470;2023-01-01T09:37:57;22.30;52.30
14577;DHT22;7375;46.072;14.470;2023-01-01T09:40:27;22.30;52.30
14577;DHT22;7375;46.072;14.470;2023-01-01T09:42:58;22.30;52.30
14577;DHT22;7375;46.072;14.470;2023-01-01T09:45:26;22.30;52.10
14577;DHT22;7375;46.072;14.470;2023-01-01T09:47:55;22.40;52.30
14577;DHT22;7375;46.072;14.470;2023-01-01T09:50:26;22.40;52.20
14577;DHT22;7375;46.072;14.470;2023-01-01T09:52:54;22.40;52.30
14577;DHT22;7375;46.072;14.470;2023-01-01T09:55:24;22.40;52.20
14577;DHT22;7375;46.072;14.470;2023-01-01T09:57:51;22.40;52.10
14577;DHT22;7375;46.072;14.470;2023-01-01T10:00:18;22.40;52.00
14577;DHT22;7375;46.072;14.470;2023-01-01T10:02:50;22.50;52.10
14577;DHT22;7375;46.072;14.470;2023-01-01T10:05:20;22.40;52.00
14577;DHT22;7375;46.072;14.470;2023-01-01T10:07:53;22.40;52.10
14577;DHT22;7375;46.072;14.470;2023-01-01T10:10:27;22.50;52.10
14577;DHT22;7375;46.072;14.470;2023-01-01T10:12:58;22.50;52.00
14577;DHT22;7375;46.072;14.470;2023-01-01T10:15:30;22.50;52.10
14577;DHT22;7375;46.072;14.470;2023-01-01T10:17:59;22.50;52.10
14577;DHT22;7375;46.072;14.470;2023-01-01T10:20:32;22.50;52.10
14577;DHT22;7375;46.072;14.470;2023-01-01T10:23:03;22.50;52.00
14577;DHT22;7375;46.072;14.470;2023-01-01T10:25:34;22.50;52.00
14577;DHT22;7375;46.072;14.470;2023-01-01T10:28:02;22.50;51.90
14577;DHT22;7375;46.072;14.470;2023-01-01T10:30:30;22.50;51.90
14577;DHT22;7375;46.072;14.470;2023-01-01T10:32:56;22.50;51.90
14577;DHT22;7375;46.072;14.470;2023-01-01T10:35:24;22.50;51.90
14577;DHT22;7375;46.072;14.470;2023-01-01T10:37:55;22.50;52.00
14577;DHT22;7375;46.072;14.470;2023-01-01T10:40:24;22.50;52.00
14577;DHT22;7375;46.072;14.470;2023-01-01T10:42:52;22.50;52.00
14577;DHT22;7375;46.072;14.470;2023-01-01T10:45:22;22.50;52.00
14577;DHT22;7375;46.072;14.470;2023-01-01T10:48:10;22.60;51.90
14577;DHT22;7375;46.072;14.470;2023-01-01T10:50:41;22.60;51.90
14577;DHT22;7375;46.072;14.470;2023-01-01T10:53:17;22.60;51.90
14577;DHT22;7375;46.072;14.470;2023-01-01T10:55:48;22.50;51.90
14577;DHT22;7375;46.072;14.470;2023-01-01T10:58:24;22.50;52.00
14577;DHT22;7375;46.072;14.470;2023-01-01T11:00:56;22.60;52.00
14577;DHT22;7375;46.072;14.470;2023-01-01T11:03:23;22.50;51.90
14577;DHT22;7375;46.072;14.470;2023-01-01T11:05:59;22.50;52.00
14577;DHT22;7375;46.072;14.470;2023-01-01T11:08:27;22.50;51.90
14577;DHT22;7375;46.072;14.470;2023-01-01T11:10:55;22.50;52.00
14577;DHT22;7375;46.072;14.470;2023-01-01T11:13:23;22.50;52.00
14577;DHT22;7375;46.072;14.470;2023-01-01T11:15:50;22.50;52.00
14577;DHT22;7375;46.072;14.470;2023-01-01T11:18:19;22.50;52.00
14577;DHT22;7375;46.072;14.470;2023-01-01T11:20:49;22.50;52.00
14577;DHT22;7375;46.072;14.470;2023-01-01T11:23:18;22.50;52.00
14577;DHT22;7375;46.072;14.470;2023-01-01T11:25:57;22.50;52.00
14577;DHT22;7375;46.072;14.470;2023-01-01T11:28:24;22.50;52.00
14577;DHT22;7375;46.072;14.470;2023-01-01T11:30:57;22.50;52.00
14577;DHT22;7375;46.072;14.470;2023-01-01T11:33:25;22.50;51.90
14577;DHT22;7375;46.072;14.470;2023-01-01T11:35:53;22.50;52.00
14577;DHT22;7375;46.072;14.470;2023-01-01T11:38:20;22.60;52.00
14577;DHT22;7375;46.072;14.470;2023-01-01T11:40:48;22.60;51.90
14577;DHT22;7375;46.072;14.470;2023-01-01T11:43:19;22.60;52.00
14577;DHT22;7375;46.072;14.470;2023-01-01T11:45:46;22.50;52.00
14577;DHT22;7375;46.072;14.470;2023-01-01T11:48:14;22.50;52.00
14577;DHT22;7375;46.072;14.470;2023-01-01T11:50:47;22.60;52.00
14577;DHT22;7375;46.072;14.470;2023-01-01T11:53:18;22.60;52.00
14577;DHT22;7375;46.072;14.470;2023-01-01T11:55:46;22.50;52.00
14577;DHT22;7375;46.072;14.470;2023-01-01T11:58:15;22.50;52.00
14577;DHT22;7375;46.072;14.470;2023-01-01T12:00:45;22.50;52.10
14577;DHT22;7375;46.072;14.470;2023-01-01T12:03:18;22.50;52.10
14577;DHT22;7375;46.072;14.470;2023-01-01T12:05:49;22.50;52.00
14577;DHT22;7375;46.072;14.470;2023-01-01T12:08:18;22.50;52.10
14577;DHT22;7375;46.072;14.470;2023-01-01T12:10:48;22.50;52.00
14577;DHT22;7375;46.072;14.470;2023-01-01T12:13:17;22.50;52.00
14577;DHT22;7375;46.072;14.470;2023-01-01T12:15:47;22.50;52.00
14577;DHT22;7375;46.072;14.470;2023-01-01T12:18:17;22.50;52.00
14577;DHT22;7375;46.072;14.470;2023-01-01T12:20:47;22.50;52.00
14577;DHT22;7375;46.072;14.470;2023-01-01T12:23:14;22.60;52.00
14577;DHT22;7375;46.072;14.470;2023-01-01T12:25:43;22.60;52.00
14577;DHT22;7375;46.072;14.470;2023-01-01T12:28:16;22.60;52.00
14577;DHT22;7375;46.072;14.470;2023-01-01T12:30:49;22.60;51.90
14577;DHT22;7375;46.072;14.470;2023-01-01T12:33:21;22.60;52.00
14577;DHT22;7375;46.072;14.470;2023-01-01T12:35:59;22.60;52.00
14577;DHT22;7375;46.072;14.470;2023-01-01T12:38:33;22.50;52.00
14577;DHT22;7375;46.072;14.470;2023-01-01T12:41:04;22.50;51.90
14577;DHT22;7375;46.072;14.470;2023-01-01T12:43:34;22.50;51.90
14577;DHT22;7375;46.072;14.470;2023-01-01T12:48:56;22.50;52.00
14577;DHT22;7375;46.072;14.470;2023-01-01T12:51:28;22.50;52.00
14577;DHT22;7375;46.072;14.470;2023-01-01T12:54:03;22.50;52.00
14577;DHT22;7375;46.072;14.470;2023-01-01T12:56:34;22.50;52.10
14577;DHT22;7375;46.072;14.470;2023-01-01T12:59:04;22.50;52.00
14577;DHT22;7375;46.072;14.470;2023-01-01T13:01:32;22.50;52.10
14577;DHT22;7375;46.072;14.470;2023-01-01T13:04:01;22.50;52.10
14577;DHT22;7375;46.072;14.470;2023-01-01T13:06:30;22.50;52.10
14577;DHT22;7375;46.072;14.470;2023-01-01T13:08:59;22.50;52.20
14577;DHT22;7375;46.072;14.470;2023-01-01T13:11:29;22.40;52.10
14577;DHT22;7375;46.072;14.470;2023-01-01T13:13:56;22.40;52.10
14577;DHT22;7375;46.072;14.470;2023-01-01T13:19:22;22.40;52.20
14577;DHT22;7375;46.072;14.470;2023-01-01T13:21:49;22.40;52.20
14577;DHT22;7375;46.072;14.470;2023-01-01T13:24:20;22.40;52.20
14577;DHT22;7375;46.072;14.470;2023-01-01T13:26:47;22.40;52.20
14577;DHT22;7375;46.072;14.470;2023-01-01T13:29:33;22.40;52.20
14577;DHT22;7375;46.072;14.470;2023-01-01T13:32:04;22.40;52.20
14577;DHT22;7375;46.072;14.470;2023-01-01T13:34:33;22.40;52.30
14577;DHT22;7375;46.072;14.470;2023-01-01T13:39:52;22.40;52.30
14577;DHT22;7375;46.072;14.470;2023-01-01T13:42:38;22.40;52.30
14577;DHT22;7375;46.072;14.470;2023-01-01T13:45:07;22.30;52.20
14577;DHT22;7375;46.072;14.470;2023-01-01T13:47:38;22.40;52.30
14577;DHT22;7375;46.072;14.470;2023-01-01T13:50:12;22.40;52.30
14577;DHT22;7375;46.072;14.470;2023-01-01T13:58:23;22.30;52.30
14577;DHT22;7375;46.072;14.470;2023-01-01T14:01:01;22.30;52.30
14577;DHT22;7375;46.072;14.470;2023-01-01T14:03:35;22.40;52.40
14577;DHT22;7375;46.072;14.470;2023-01-01T14:06:07;22.30;52.30
14577;DHT22;7375;46.072;14.470;2023-01-01T14:08:36;22.30;52.30
14577;DHT22;7375;46.072;14.470;2023-01-01T14:11:15;22.30;52.30
14577;DHT22;7375;46.072;14.470;2023-01-01T14:13:43;22.30;52.40
14577;DHT22;7375;46.072;14.470;2023-01-01T14:16:10;22.30;52.40
14577;DHT22;7375;46.072;14.470;2023-01-01T14:18:38;22.30;52.40
14577;DHT22;7375;46.072;14.470;2023-01-01T14:21:08;22.30;52.40
14577;DHT22;7375;46.072;14.470;2023-01-01T14:23:37;22.30;52.30
14577;DHT22;7375;46.072;14.470;2023-01-01T14:26:05;22.30;52.30
14577;DHT22;7375;46.072;14.470;2023-01-01T14:28:34;22.30;52.30
14577;DHT22;7375;46.072;14.470;2023-01-01T14:31:02;22.30;52.40
14577;DHT22;7375;46.072;14.470;2023-01-01T14:33:31;22.30;52.40
14577;DHT22;7375;46.072;14.470;2023-01-01T14:35:58;22.30;52.40
14577;DHT22;7375;46.072;14.470;2023-01-01T14:38:27;22.30;52.40
14577;DHT22;7375;46.072;14.470;2023-01-01T14:41:01;22.30;52.40
14577;DHT22;7375;46.072;14.470;2023-01-01T14:43:29;22.30;52.50
14577;DHT22;7375;46.072;14.470;2023-01-01T14:45:55;22.30;52.50
14577;DHT22;7375;46.072;14.470;2023-01-01T14:48:22;22.30;52.50
14577;DHT22;7375;46.072;14.470;2023-01-01T14:50:56;22.30;52.50
14577;DHT22;7375;46.072;14.470;2023-01-01T14:53:25;22.30;52.50
14577;DHT22;7375;46.072;14.470;2023-01-01T14:55:55;22.30;52.50
14577;DHT22;7375;46.072;14.470;2023-01-01T14:58:23;22.30;52.40
14577;DHT22;7375;46.072;14.470;2023-01-01T15:00:51;22.30;52.40
14577;DHT22;7375;46.072;14.470;2023-01-01T15:03:18;22.30;52.50
14577;DHT22;7375;46.072;14.470;2023-01-01T15:05:46;22.30;52.50
14577;DHT22;7375;46.072;14.470;2023-01-01T15:08:22;22.30;52.40
14577;DHT22;7375;46.072;14.470;2023-01-01T15:10:49;22.30;52.40
14577;DHT22;7375;46.072;14.470;2023-01-01T15:13:19;22.20;52.40
14577;DHT22;7375;46.072;14.470;2023-01-01T15:15:46;22.20;52.50
14577;DHT22;7375;46.072;14.470;2023-01-01T15:18:33;22.20;52.50
14577;DHT22;7375;46.072;14.470;2023-01-01T15:21:00;22.20;52.50
14577;DHT22;7375;46.072;14.470;2023-01-01T15:23:27;22.20;52.50
14577;DHT22;7375;46.072;14.470;2023-01-01T15:25:54;22.20;52.50
14577;DHT22;7375;46.072;14.470;2023-01-01T15:28:22;22.20;52.50
14577;DHT22;7375;46.072;14.470;2023-01-01T15:30:50;22.20;52.50
14577;DHT22;7375;46.072;14.470;2023-01-01T15:33:17;22.20;52.50
14577;DHT22;7375;46.072;14.470;2023-01-01T15:35:45;22.20;52.60
14577;DHT22;7375;46.072;14.470;2023-01-01T15:38:14;22.20;52.60
14577;DHT22;7375;46.072;14.470;2023-01-01T15:40:41;22.20;52.60
14577;DHT22;7375;46.072;14.470;2023-01-01T15:43:17;22.20;52.60
14577;DHT22;7375;46.072;14.470;2023-01-01T15:45:56;22.20;52.60
14577;DHT22;7375;46.072;14.470;2023-01-01T15:48:26;22.20;52.70
14577;DHT22;7375;46.072;14.470;2023-01-01T15:50:56;22.20;52.70
14577;DHT22;7375;46.072;14.470;2023-01-01T15:53:24;22.20;52.60
14577;DHT22;7375;46.072;14.470;2023-01-01T15:55:53;22.20;52.70
14577;DHT22;7375;46.072;14.470;2023-01-01T15:58:21;22.20;52.60
14577;DHT22;7375;46.072;14.470;2023-01-01T16:00:50;22.20;52.70